Wayana — PE5639 — position and weather

sailwx.info

Track history (hours):
 
Tides and Currents Weather Stations Pressure Air Temp Water Temp Dewpoint Dewpoint Depression Visibility Wind Speed Wind Dir Waves Ship Positions

Wayana

Last reported at 2016-Jan-01 14:32 UTC. Time now 2016-Feb-06 00:23 UTC.
Position N 52°55' E 005°03'.
Warning: this ship's position is 35 days out of date.

Length 14 m.

Type: Sailing vessel. MMSI: 244020670.

Date/timePositionNaut miles runAvg speedWind from/ knotsBaromVisibWave heightAir tempDewpointWater temp
2016-Jan-01 14:32N 52°55' E 005°03'2 1.8
2016-Jan-01 13:33N 52°56' E 005°06'6 6.3
2016-Jan-01 12:33N 53°00' E 005°13'6 5.9
2016-Jan-01 11:33N 53°04' E 005°20'3 3.0
2016-Jan-01 10:33N 53°07' E 005°22'5 4.6
2016-Jan-01 09:34N 53°11' E 005°20'7 7.4
2016-Jan-01 08:34N 53°16' E 005°11'  
2015-Dec-23 17:25N 53°22' E 005°13'0 0.0
2015-Dec-23 16:19N 53°22' E 005°13'0 0.0
2015-Dec-23 15:31N 53°22' E 005°13'0 0.0
2015-Dec-23 14:25N 53°22' E 005°13'0 0.0
2015-Dec-23 13:25N 53°22' E 005°13'0 0.0
2015-Dec-23 12:31N 53°22' E 005°13'0 0.0
2015-Dec-23 11:32N 53°22' E 005°13'0 0.0
2015-Dec-23 10:31N 53°22' E 005°13'  
Track history (hours):
 
Tides and Currents Weather Stations Pressure Air Temp Water Temp Dewpoint Dewpoint Depression Visibility Wind Speed Wind Dir Waves Ship Positions

Wayana

Last reported at 2016-Jan-01 14:32 UTC. Time now 2016-Feb-06 00:23 UTC.
Position N 52°55' E 005°03'.
Warning: this ship's position is 35 days out of date.

Length 14 m.

Type: Sailing vessel. MMSI: 244020670.

Date/timePositionNaut miles runAvg speedWind from/ knotsBaromVisibWave heightAir tempDewpointWater temp
2016-Jan-01 14:32N 52°55' E 005°03'2 1.8
2016-Jan-01 13:33N 52°56' E 005°06'6 6.3
2016-Jan-01 12:33N 53°00' E 005°13'6 5.9
2016-Jan-01 11:33N 53°04' E 005°20'3 3.0
2016-Jan-01 10:33N 53°07' E 005°22'5 4.6
2016-Jan-01 09:34N 53°11' E 005°20'7 7.4
2016-Jan-01 08:34N 53°16' E 005°11'  
2015-Dec-23 17:25N 53°22' E 005°13'0 0.0
2015-Dec-23 16:19N 53°22' E 005°13'0 0.0
2015-Dec-23 15:31N 53°22' E 005°13'0 0.0
2015-Dec-23 14:25N 53°22' E 005°13'0 0.0
2015-Dec-23 13:25N 53°22' E 005°13'0 0.0
2015-Dec-23 12:31N 53°22' E 005°13'0 0.0
2015-Dec-23 11:32N 53°22' E 005°13'0 0.0
2015-Dec-23 10:31N 53°22' E 005°13'  

Dump ship's entire track history